sensor_id;sensor_type;location;lat;lon;timestamp;temperature;humidity
22185;DHT22;11258;52.516;13.318;2022-10-16T00:00:31;15.90;99.90
22185;DHT22;11258;52.516;13.318;2022-10-16T00:02:56;15.90;99.90
22185;DHT22;11258;52.516;13.318;2022-10-16T00:05:22;15.90;99.90
22185;DHT22;11258;52.516;13.318;2022-10-16T00:07:47;16.00;99.90
22185;DHT22;11258;52.516;13.318;2022-10-16T00:10:13;16.00;99.90
22185;DHT22;11258;52.516;13.318;2022-10-16T00:12:39;16.00;99.90
22185;DHT22;11258;52.516;13.318;2022-10-16T00:15:05;16.00;99.90
22185;DHT22;11258;52.516;13.318;2022-10-16T00:17:31;16.00;99.90
22185;DHT22;11258;52.516;13.318;2022-10-16T00:19:56;16.00;99.90
22185;DHT22;11258;52.516;13.318;2022-10-16T00:22:22;16.00;99.90
22185;DHT22;11258;52.516;13.318;2022-10-16T00:24:47;16.00;99.90
22185;DHT22;11258;52.516;13.318;2022-10-16T00:27:13;16.00;99.90
22185;DHT22;11258;52.516;13.318;2022-10-16T00:29:39;16.00;99.90
22185;DHT22;11258;52.516;13.318;2022-10-16T00:32:04;16.00;99.90
22185;DHT22;11258;52.516;13.318;2022-10-16T00:34:30;16.00;99.90
22185;DHT22;11258;52.516;13.318;2022-10-16T00:36:55;16.00;99.90
22185;DHT22;11258;52.516;13.318;2022-10-16T00:39:21;16.00;99.90
22185;DHT22;11258;52.516;13.318;2022-10-16T00:41:47;16.00;99.90
22185;DHT22;11258;52.516;13.318;2022-10-16T00:44:49;16.10;99.90
22185;DHT22;11258;52.516;13.318;2022-10-16T00:47:22;16.00;99.90
22185;DHT22;11258;52.516;13.318;2022-10-16T00:49:51;16.10;99.90
22185;DHT22;11258;52.516;13.318;2022-10-16T00:52:19;16.10;99.90
22185;DHT22;11258;52.516;13.318;2022-10-16T00:54:46;16.00;99.90
22185;DHT22;11258;52.516;13.318;2022-10-16T00:57:12;16.10;99.90
22185;DHT22;11258;52.516;13.318;2022-10-16T00:59:39;16.00;99.90
22185;DHT22;11258;52.516;13.318;2022-10-16T01:02:07;16.00;99.90
22185;DHT22;11258;52.516;13.318;2022-10-16T01:04:43;16.00;99.90
22185;DHT22;11258;52.516;13.318;2022-10-16T01:10:21;16.00;99.90
22185;DHT22;11258;52.516;13.318;2022-10-16T01:12:59;16.00;99.90
22185;DHT22;11258;52.516;13.318;2022-10-16T01:16:08;16.00;99.90
22185;DHT22;11258;52.516;13.318;2022-10-16T01:18:46;16.00;99.90
22185;DHT22;11258;52.516;13.318;2022-10-16T01:21:19;16.00;99.90
22185;DHT22;11258;52.516;13.318;2022-10-16T01:27:01;15.90;99.90
22185;DHT22;11258;52.516;13.318;2022-10-16T01:29:42;15.90;99.90
22185;DHT22;11258;52.516;13.318;2022-10-16T01:32:26;16.00;99.90
22185;DHT22;11258;52.516;13.318;2022-10-16T01:35:28;15.90;99.90
22185;DHT22;11258;52.516;13.318;2022-10-16T01:40:33;16.00;99.90
22185;DHT22;11258;52.516;13.318;2022-10-16T01:43:02;16.00;99.90
22185;DHT22;11258;52.516;13.318;2022-10-16T01:45:30;16.00;99.90
22185;DHT22;11258;52.516;13.318;2022-10-16T01:47:57;15.90;99.90
22185;DHT22;11258;52.516;13.318;2022-10-16T01:50:24;15.90;99.90
22185;DHT22;11258;52.516;13.318;2022-10-16T01:52:52;15.90;99.90
22185;DHT22;11258;52.516;13.318;2022-10-16T01:55:23;15.90;99.90
22185;DHT22;11258;52.516;13.318;2022-10-16T01:57:50;15.90;99.90
22185;DHT22;11258;52.516;13.318;2022-10-16T02:00:19;15.90;99.90
22185;DHT22;11258;52.516;13.318;2022-10-16T02:02:48;15.90;99.90
22185;DHT22;11258;52.516;13.318;2022-10-16T02:05:31;15.90;99.90
22185;DHT22;11258;52.516;13.318;2022-10-16T02:07:58;16.00;99.90
22185;DHT22;11258;52.516;13.318;2022-10-16T02:10:24;15.90;99.90
22185;DHT22;11258;52.516;13.318;2022-10-16T02:13:00;15.90;99.90
22185;DHT22;11258;52.516;13.318;2022-10-16T02:15:27;15.90;99.90
22185;DHT22;11258;52.516;13.318;2022-10-16T02:17:53;15.90;99.90
22185;DHT22;11258;52.516;13.318;2022-10-16T02:20:22;16.00;99.90
22185;DHT22;11258;52.516;13.318;2022-10-16T02:22:50;16.00;99.90
22185;DHT22;11258;52.516;13.318;2022-10-16T02:25:30;16.00;99.90
22185;DHT22;11258;52.516;13.318;2022-10-16T02:30:51;16.00;99.90
22185;DHT22;11258;52.516;13.318;2022-10-16T02:33:21;16.00;99.90
22185;DHT22;11258;52.516;13.318;2022-10-16T02:35:49;15.90;99.90
22185;DHT22;11258;52.516;13.318;2022-10-16T02:38:17;15.90;99.90
22185;DHT22;11258;52.516;13.318;2022-10-16T02:40:44;15.90;99.90
22185;DHT22;11258;52.516;13.318;2022-10-16T02:43:10;15.90;99.90
22185;DHT22;11258;52.516;13.318;2022-10-16T02:45:36;15.90;99.90
22185;DHT22;11258;52.516;13.318;2022-10-16T02:48:01;16.00;99.90
22185;DHT22;11258;52.516;13.318;2022-10-16T02:50:27;15.90;99.90
22185;DHT22;11258;52.516;13.318;2022-10-16T02:52:52;15.90;99.90
22185;DHT22;11258;52.516;13.318;2022-10-16T02:55:18;15.90;99.90
22185;DHT22;11258;52.516;13.318;2022-10-16T02:57:44;15.90;99.90
22185;DHT22;11258;52.516;13.318;2022-10-16T03:00:12;15.90;99.90
22185;DHT22;11258;52.516;13.318;2022-10-16T03:02:38;15.90;99.90
22185;DHT22;11258;52.516;13.318;2022-10-16T03:05:04;15.90;99.90
22185;DHT22;11258;52.516;13.318;2022-10-16T03:07:30;15.80;99.90
22185;DHT22;11258;52.516;13.318;2022-10-16T03:09:55;15.80;99.90
22185;DHT22;11258;52.516;13.318;2022-10-16T03:12:21;15.70;99.90
22185;DHT22;11258;52.516;13.318;2022-10-16T03:14:47;15.70;99.90
22185;DHT22;11258;52.516;13.318;2022-10-16T03:17:13;15.70;99.90
22185;DHT22;11258;52.516;13.318;2022-10-16T03:19:39;15.70;99.90
22185;DHT22;11258;52.516;13.318;2022-10-16T03:22:05;15.70;99.90
22185;DHT22;11258;52.516;13.318;2022-10-16T03:24:30;15.70;99.90
22185;DHT22;11258;52.516;13.318;2022-10-16T03:26:56;15.60;99.90
22185;DHT22;11258;52.516;13.318;2022-10-16T03:29:21;15.60;99.90
22185;DHT22;11258;52.516;13.318;2022-10-16T03:31:47;15.60;99.90
22185;DHT22;11258;52.516;13.318;2022-10-16T03:34:14;15.70;99.90
22185;DHT22;11258;52.516;13.318;2022-10-16T03:36:40;15.60;99.90
22185;DHT22;11258;52.516;13.318;2022-10-16T03:39:05;15.60;99.90
22185;DHT22;11258;52.516;13.318;2022-10-16T03:41:31;15.50;99.90
22185;DHT22;11258;52.516;13.318;2022-10-16T03:43:56;15.50;99.90
22185;DHT22;11258;52.516;13.318;2022-10-16T03:46:22;15.50;99.90
22185;DHT22;11258;52.516;13.318;2022-10-16T03:48:47;15.50;99.90
22185;DHT22;11258;52.516;13.318;2022-10-16T03:51:13;15.50;99.90
22185;DHT22;11258;52.516;13.318;2022-10-16T03:53:39;15.50;99.90
22185;DHT22;11258;52.516;13.318;2022-10-16T03:56:04;15.50;99.90
22185;DHT22;11258;52.516;13.318;2022-10-16T03:58:30;15.50;99.90
22185;DHT22;11258;52.516;13.318;2022-10-16T04:00:56;15.50;99.90
22185;DHT22;11258;52.516;13.318;2022-10-16T04:03:21;15.50;99.90
22185;DHT22;11258;52.516;13.318;2022-10-16T04:05:48;15.40;99.90
22185;DHT22;11258;52.516;13.318;2022-10-16T04:08:13;15.40;99.90
22185;DHT22;11258;52.516;13.318;2022-10-16T04:10:39;15.40;99.90
22185;DHT22;11258;52.516;13.318;2022-10-16T04:13:05;15.40;99.90
22185;DHT22;11258;52.516;13.318;2022-10-16T04:15:30;15.40;99.90
22185;DHT22;11258;52.516;13.318;2022-10-16T04:17:56;15.40;99.90
22185;DHT22;11258;52.516;13.318;2022-10-16T04:20:21;15.40;99.90
22185;DHT22;11258;52.516;13.318;2022-10-16T04:22:47;15.40;99.90
22185;DHT22;11258;52.516;13.318;2022-10-16T04:25:12;15.40;99.90
22185;DHT22;11258;52.516;13.318;2022-10-16T04:27:38;15.40;99.90
22185;DHT22;11258;52.516;13.318;2022-10-16T04:30:04;15.40;99.90
22185;DHT22;11258;52.516;13.318;2022-10-16T04:32:30;15.30;99.90
22185;DHT22;11258;52.516;13.318;2022-10-16T04:34:56;15.40;99.90
22185;DHT22;11258;52.516;13.318;2022-10-16T04:37:25;15.40;99.90
22185;DHT22;11258;52.516;13.318;2022-10-16T04:39:51;15.40;99.90
22185;DHT22;11258;52.516;13.318;2022-10-16T04:42:17;15.30;99.90
22185;DHT22;11258;52.516;13.318;2022-10-16T04:44:42;15.30;99.90
22185;DHT22;11258;52.516;13.318;2022-10-16T04:47:08;15.30;99.90
22185;DHT22;11258;52.516;13.318;2022-10-16T04:49:34;15.30;99.90
22185;DHT22;11258;52.516;13.318;2022-10-16T04:51:59;15.30;99.90
22185;DHT22;11258;52.516;13.318;2022-10-16T04:54:25;15.20;99.90
22185;DHT22;11258;52.516;13.318;2022-10-16T04:56:50;15.20;99.90
22185;DHT22;11258;52.516;13.318;2022-10-16T04:59:18;15.30;99.90
22185;DHT22;11258;52.516;13.318;2022-10-16T05:01:44;15.30;99.90
22185;DHT22;11258;52.516;13.318;2022-10-16T05:04:10;15.20;99.90
22185;DHT22;11258;52.516;13.318;2022-10-16T05:06:37;15.20;99.90
22185;DHT22;11258;52.516;13.318;2022-10-16T05:09:04;15.20;99.90
22185;DHT22;11258;52.516;13.318;2022-10-16T05:11:30;15.20;99.90
22185;DHT22;11258;52.516;13.318;2022-10-16T05:13:56;15.10;99.90
22185;DHT22;11258;52.516;13.318;2022-10-16T05:16:21;15.20;99.90
22185;DHT22;11258;52.516;13.318;2022-10-16T05:18:47;15.20;99.90
22185;DHT22;11258;52.516;13.318;2022-10-16T05:21:12;15.20;99.90
22185;DHT22;11258;52.516;13.318;2022-10-16T05:23:38;15.20;99.90
22185;DHT22;11258;52.516;13.318;2022-10-16T05:26:04;15.20;99.90
22185;DHT22;11258;52.516;13.318;2022-10-16T05:28:30;15.20;99.90
22185;DHT22;11258;52.516;13.318;2022-10-16T05:30:56;15.20;99.90
22185;DHT22;11258;52.516;13.318;2022-10-16T05:33:24;15.20;99.90
22185;DHT22;11258;52.516;13.318;2022-10-16T05:35:50;15.20;99.90
22185;DHT22;11258;52.516;13.318;2022-10-16T05:38:17;15.20;99.90
22185;DHT22;11258;52.516;13.318;2022-10-16T05:40:42;15.20;99.90
22185;DHT22;11258;52.516;13.318;2022-10-16T05:43:08;15.20;99.90
22185;DHT22;11258;52.516;13.318;2022-10-16T05:45:34;15.30;99.90
22185;DHT22;11258;52.516;13.318;2022-10-16T05:48:00;15.30;99.90
22185;DHT22;11258;52.516;13.318;2022-10-16T05:50:26;15.30;99.90
22185;DHT22;11258;52.516;13.318;2022-10-16T05:52:52;15.30;99.90
22185;DHT22;11258;52.516;13.318;2022-10-16T05:55:17;15.40;99.90
22185;DHT22;11258;52.516;13.318;2022-10-16T05:57:43;15.40;99.90
22185;DHT22;11258;52.516;13.318;2022-10-16T06:00:09;15.50;99.90
22185;DHT22;11258;52.516;13.318;2022-10-16T06:02:35;15.60;99.90
22185;DHT22;11258;52.516;13.318;2022-10-16T06:05:00;15.60;99.90
22185;DHT22;11258;52.516;13.318;2022-10-16T06:07:26;15.60;99.90
22185;DHT22;11258;52.516;13.318;2022-10-16T06:09:52;15.60;99.90
22185;DHT22;11258;52.516;13.318;2022-10-16T06:12:18;15.60;99.90
22185;DHT22;11258;52.516;13.318;2022-10-16T06:14:45;15.60;99.90
22185;DHT22;11258;52.516;13.318;2022-10-16T06:17:12;15.50;99.90
22185;DHT22;11258;52.516;13.318;2022-10-16T06:19:38;15.50;99.90
22185;DHT22;11258;52.516;13.318;2022-10-16T06:22:03;15.50;99.90
22185;DHT22;11258;52.516;13.318;2022-10-16T06:24:29;15.50;99.90
22185;DHT22;11258;52.516;13.318;2022-10-16T06:26:55;15.60;99.90
22185;DHT22;11258;52.516;13.318;2022-10-16T06:29:20;15.60;99.90
22185;DHT22;11258;52.516;13.318;2022-10-16T06:31:46;15.70;99.90
22185;DHT22;11258;52.516;13.318;2022-10-16T06:34:11;15.70;99.90
22185;DHT22;11258;52.516;13.318;2022-10-16T06:36:38;15.70;99.90
22185;DHT22;11258;52.516;13.318;2022-10-16T06:39:04;15.70;99.90
22185;DHT22;11258;52.516;13.318;2022-10-16T06:41:30;15.80;99.90
22185;DHT22;11258;52.516;13.318;2022-10-16T06:43:56;15.80;99.90
22185;DHT22;11258;52.516;13.318;2022-10-16T06:46:23;15.80;99.90
22185;DHT22;11258;52.516;13.318;2022-10-16T06:48:49;15.80;99.90
22185;DHT22;11258;52.516;13.318;2022-10-16T06:51:17;15.80;99.90
22185;DHT22;11258;52.516;13.318;2022-10-16T06:53:45;15.80;99.90
22185;DHT22;11258;52.516;13.318;2022-10-16T06:56:17;15.80;99.90
22185;DHT22;11258;52.516;13.318;2022-10-16T06:58:43;15.80;99.90
22185;DHT22;11258;52.516;13.318;2022-10-16T07:01:10;15.80;99.90
22185;DHT22;11258;52.516;13.318;2022-10-16T07:03:40;15.90;99.90
22185;DHT22;11258;52.516;13.318;2022-10-16T07:06:08;16.00;99.90
22185;DHT22;11258;52.516;13.318;2022-10-16T07:08:35;16.00;99.90
22185;DHT22;11258;52.516;13.318;2022-10-16T07:11:06;16.20;99.90
22185;DHT22;11258;52.516;13.318;2022-10-16T07:13:40;16.40;99.90
22185;DHT22;11258;52.516;13.318;2022-10-16T07:18:31;16.80;99.90
22185;DHT22;11258;52.516;13.318;2022-10-16T07:21:07;16.90;99.90
22185;DHT22;11258;52.516;13.318;2022-10-16T07:23:33;16.90;99.90
22185;DHT22;11258;52.516;13.318;2022-10-16T07:25:59;16.80;99.90
22185;DHT22;11258;52.516;13.318;2022-10-16T07:28:24;16.80;99.90
22185;DHT22;11258;52.516;13.318;2022-10-16T07:30:50;16.80;99.90
22185;DHT22;11258;52.516;13.318;2022-10-16T07:33:16;17.10;99.90
22185;DHT22;11258;52.516;13.318;2022-10-16T07:35:51;17.20;99.90
22185;DHT22;11258;52.516;13.318;2022-10-16T07:38:18;17.20;99.90
22185;DHT22;11258;52.516;13.318;2022-10-16T07:40:44;17.40;99.90
22185;DHT22;11258;52.516;13.318;2022-10-16T07:43:10;17.40;99.90
22185;DHT22;11258;52.516;13.318;2022-10-16T07:45:36;17.60;99.90
22185;DHT22;11258;52.516;13.318;2022-10-16T07:48:02;17.70;99.90
22185;DHT22;11258;52.516;13.318;2022-10-16T07:50:27;17.60;99.90
22185;DHT22;11258;52.516;13.318;2022-10-16T07:52:53;17.60;99.90
22185;DHT22;11258;52.516;13.318;2022-10-16T07:55:18;17.60;99.90
22185;DHT22;11258;52.516;13.318;2022-10-16T07:57:44;17.70;99.90
22185;DHT22;11258;52.516;13.318;2022-10-16T08:00:10;17.50;99.90
22185;DHT22;11258;52.516;13.318;2022-10-16T08:02:42;17.60;99.90
22185;DHT22;11258;52.516;13.318;2022-10-16T08:05:08;17.50;99.90
22185;DHT22;11258;52.516;13.318;2022-10-16T08:07:33;17.40;99.90
22185;DHT22;11258;52.516;13.318;2022-10-16T08:09:59;17.50;99.90
22185;DHT22;11258;52.516;13.318;2022-10-16T08:12:27;17.60;99.90
22185;DHT22;11258;52.516;13.318;2022-10-16T08:14:53;17.50;99.90
22185;DHT22;11258;52.516;13.318;2022-10-16T08:17:18;17.60;99.90
22185;DHT22;11258;52.516;13.318;2022-10-16T08:19:45;17.60;99.90
22185;DHT22;11258;52.516;13.318;2022-10-16T08:22:11;17.60;99.90
22185;DHT22;11258;52.516;13.318;2022-10-16T08:24:37;17.70;99.90
22185;DHT22;11258;52.516;13.318;2022-10-16T08:27:02;17.80;99.90
22185;DHT22;11258;52.516;13.318;2022-10-16T08:29:28;17.90;99.90
22185;DHT22;11258;52.516;13.318;2022-10-16T08:31:54;17.90;99.90
22185;DHT22;11258;52.516;13.318;2022-10-16T08:34:19;18.00;99.90
22185;DHT22;11258;52.516;13.318;2022-10-16T08:36:45;18.10;99.90
22185;DHT22;11258;52.516;13.318;2022-10-16T08:39:10;18.00;99.90
22185;DHT22;11258;52.516;13.318;2022-10-16T08:47:22;18.00;99.90
22185;DHT22;11258;52.516;13.318;2022-10-16T08:49:58;18.20;99.90
22185;DHT22;11258;52.516;13.318;2022-10-16T08:52:30;18.30;99.90
22185;DHT22;11258;52.516;13.318;2022-10-16T08:54:58;18.30;99.90
22185;DHT22;11258;52.516;13.318;2022-10-16T08:57:25;18.40;99.90
22185;DHT22;11258;52.516;13.318;2022-10-16T08:59:59;18.50;99.90
22185;DHT22;11258;52.516;13.318;2022-10-16T09:02:37;18.60;99.90
22185;DHT22;11258;52.516;13.318;2022-10-16T09:05:29;18.70;99.90
22185;DHT22;11258;52.516;13.318;2022-10-16T09:10:59;19.10;99.90
22185;DHT22;11258;52.516;13.318;2022-10-16T09:13:50;19.70;99.90
22185;DHT22;11258;52.516;13.318;2022-10-16T09:16:27;20.00;99.90
22185;DHT22;11258;52.516;13.318;2022-10-16T09:19:20;20.20;99.90
22185;DHT22;11258;52.516;13.318;2022-10-16T09:21:47;20.40;99.90
22185;DHT22;11258;52.516;13.318;2022-10-16T09:24:31;20.30;99.90
22185;DHT22;11258;52.516;13.318;2022-10-16T09:26:57;20.50;99.90
22185;DHT22;11258;52.516;13.318;2022-10-16T09:29:23;20.50;99.90
22185;DHT22;11258;52.516;13.318;2022-10-16T09:31:51;20.60;99.90
22185;DHT22;11258;52.516;13.318;2022-10-16T09:34:30;21.00;99.90
22185;DHT22;11258;52.516;13.318;2022-10-16T09:36:57;20.90;99.90
22185;DHT22;11258;52.516;13.318;2022-10-16T09:39:24;21.20;99.90
22185;DHT22;11258;52.516;13.318;2022-10-16T09:41:49;21.30;99.90
22185;DHT22;11258;52.516;13.318;2022-10-16T09:44:27;21.60;99.90
22185;DHT22;11258;52.516;13.318;2022-10-16T09:47:03;21.70;99.90
22185;DHT22;11258;52.516;13.318;2022-10-16T09:49:29;21.50;99.90
22185;DHT22;11258;52.516;13.318;2022-10-16T09:52:14;21.20;99.90
22185;DHT22;11258;52.516;13.318;2022-10-16T09:55:16;21.20;99.90
22185;DHT22;11258;52.516;13.318;2022-10-16T09:57:52;21.10;99.90
22185;DHT22;11258;52.516;13.318;2022-10-16T10:00:18;21.10;99.90
22185;DHT22;11258;52.516;13.318;2022-10-16T10:02:45;21.20;99.90
22185;DHT22;11258;52.516;13.318;2022-10-16T10:05:24;21.70;99.90
22185;DHT22;11258;52.516;13.318;2022-10-16T10:07:58;21.90;99.90
22185;DHT22;11258;52.516;13.318;2022-10-16T10:10:27;21.30;99.90
22185;DHT22;11258;52.516;13.318;2022-10-16T10:12:55;21.10;99.90
22185;DHT22;11258;52.516;13.318;2022-10-16T10:15:21;21.20;99.90
22185;DHT22;11258;52.516;13.318;2022-10-16T10:17:54;21.10;99.90
22185;DHT22;11258;52.516;13.318;2022-10-16T10:20:34;21.00;99.90
22185;DHT22;11258;52.516;13.318;2022-10-16T10:23:22;20.90;99.90
22185;DHT22;11258;52.516;13.318;2022-10-16T10:31:33;20.50;99.90
22185;DHT22;11258;52.516;13.318;2022-10-16T10:35:03;20.40;99.90
22185;DHT22;11258;52.516;13.318;2022-10-16T10:42:47;20.50;99.90
22185;DHT22;11258;52.516;13.318;2022-10-16T10:45:30;20.70;99.90
22185;DHT22;11258;52.516;13.318;2022-10-16T10:50:48;21.00;99.90
22185;DHT22;11258;52.516;13.318;2022-10-16T10:53:38;21.00;99.90
22185;DHT22;11258;52.516;13.318;2022-10-16T10:59:07;21.20;99.90
22185;DHT22;11258;52.516;13.318;2022-10-16T11:02:00;21.40;99.90
22185;DHT22;11258;52.516;13.318;2022-10-16T11:04:39;21.90;99.90
22185;DHT22;11258;52.516;13.318;2022-10-16T11:07:18;22.20;99.90
22185;DHT22;11258;52.516;13.318;2022-10-16T11:09:49;22.30;99.90
22185;DHT22;11258;52.516;13.318;2022-10-16T11:12:29;22.30;99.90
22185;DHT22;11258;52.516;13.318;2022-10-16T11:15:17;22.30;99.90
22185;DHT22;11258;52.516;13.318;2022-10-16T11:18:05;22.30;99.90
22185;DHT22;11258;52.516;13.318;2022-10-16T11:20:37;22.00;99.90
22185;DHT22;11258;52.516;13.318;2022-10-16T11:23:24;22.00;99.90
22185;DHT22;11258;52.516;13.318;2022-10-16T11:25:51;21.70;99.90
22185;DHT22;11258;52.516;13.318;2022-10-16T11:28:20;21.60;99.90
22185;DHT22;11258;52.516;13.318;2022-10-16T11:31:05;21.60;99.90
22185;DHT22;11258;52.516;13.318;2022-10-16T11:33:41;21.60;99.90
22185;DHT22;11258;52.516;13.318;2022-10-16T11:36:42;21.60;99.90
22185;DHT22;11258;52.516;13.318;2022-10-16T11:39:20;21.30;99.90
22185;DHT22;11258;52.516;13.318;2022-10-16T11:41:52;21.20;99.90
22185;DHT22;11258;52.516;13.318;2022-10-16T11:50:00;21.20;99.90
22185;DHT22;11258;52.516;13.318;2022-10-16T11:52:40;21.10;99.90
22185;DHT22;11258;52.516;13.318;2022-10-16T11:57:38;20.80;99.90
22185;DHT22;11258;52.516;13.318;2022-10-16T12:00:20;20.70;99.90
22185;DHT22;11258;52.516;13.318;2022-10-16T12:08:22;20.20;99.90
22185;DHT22;11258;52.516;13.318;2022-10-16T12:10:48;20.20;99.90
22185;DHT22;11258;52.516;13.318;2022-10-16T12:13:46;20.30;99.90
22185;DHT22;11258;52.516;13.318;2022-10-16T12:18:43;20.60;99.90
22185;DHT22;11258;52.516;13.318;2022-10-16T12:21:10;20.80;99.90
22185;DHT22;11258;52.516;13.318;2022-10-16T12:23:47;20.80;99.90
22185;DHT22;11258;52.516;13.318;2022-10-16T12:26:13;20.90;99.90
22185;DHT22;11258;52.516;13.318;2022-10-16T12:28:39;20.80;99.90
22185;DHT22;11258;52.516;13.318;2022-10-16T12:31:07;20.80;99.90
22185;DHT22;11258;52.516;13.318;2022-10-16T12:33:56;20.70;99.90
22185;DHT22;11258;52.516;13.318;2022-10-16T12:36:35;20.70;99.90
22185;DHT22;11258;52.516;13.318;2022-10-16T12:39:01;20.60;99.90
22185;DHT22;11258;52.516;13.318;2022-10-16T12:41:35;20.60;99.90
22185;DHT22;11258;52.516;13.318;2022-10-16T12:44:01;20.70;99.90
22185;DHT22;11258;52.516;13.318;2022-10-16T12:54:03;20.50;99.90
22185;DHT22;11258;52.516;13.318;2022-10-16T12:56:54;20.60;99.90
22185;DHT22;11258;52.516;13.318;2022-10-16T13:02:28;20.70;99.90
22185;DHT22;11258;52.516;13.318;2022-10-16T13:05:21;20.70;99.90
22185;DHT22;11258;52.516;13.318;2022-10-16T13:24:33;20.40;99.90
22185;DHT22;11258;52.516;13.318;2022-10-16T13:29:34;20.50;99.90
22185;DHT22;11258;52.516;13.318;2022-10-16T13:32:01;20.50;99.90
22185;DHT22;11258;52.516;13.318;2022-10-16T13:34:32;20.50;99.90
22185;DHT22;11258;52.516;13.318;2022-10-16T13:36:57;20.60;99.90
22185;DHT22;11258;52.516;13.318;2022-10-16T13:39:28;20.60;99.90
22185;DHT22;11258;52.516;13.318;2022-10-16T13:42:01;20.60;99.90
22185;DHT22;11258;52.516;13.318;2022-10-16T13:44:31;20.60;99.90
22185;DHT22;11258;52.516;13.318;2022-10-16T13:47:01;20.50;99.90
22185;DHT22;11258;52.516;13.318;2022-10-16T13:49:27;20.50;99.90
22185;DHT22;11258;52.516;13.318;2022-10-16T13:52:00;20.40;99.90
22185;DHT22;11258;52.516;13.318;2022-10-16T13:54:26;20.40;99.90
22185;DHT22;11258;52.516;13.318;2022-10-16T13:56:54;20.30;99.90
22185;DHT22;11258;52.516;13.318;2022-10-16T13:59:34;20.30;99.90
22185;DHT22;11258;52.516;13.318;2022-10-16T14:02:26;20.30;99.90
22185;DHT22;11258;52.516;13.318;2022-10-16T14:04:50;20.20;99.90
22185;DHT22;11258;52.516;13.318;2022-10-16T14:07:27;20.20;99.90
22185;DHT22;11258;52.516;13.318;2022-10-16T14:09:54;20.20;99.90
22185;DHT22;11258;52.516;13.318;2022-10-16T14:12:20;20.20;99.90
22185;DHT22;11258;52.516;13.318;2022-10-16T14:14:48;20.20;99.90
22185;DHT22;11258;52.516;13.318;2022-10-16T14:17:26;20.10;99.90
22185;DHT22;11258;52.516;13.318;2022-10-16T14:19:55;20.10;99.90
22185;DHT22;11258;52.516;13.318;2022-10-16T14:22:30;20.10;99.90
22185;DHT22;11258;52.516;13.318;2022-10-16T14:24:56;20.10;99.90
22185;DHT22;11258;52.516;13.318;2022-10-16T14:27:36;20.10;99.90
22185;DHT22;11258;52.516;13.318;2022-10-16T14:30:14;20.00;99.90
22185;DHT22;11258;52.516;13.318;2022-10-16T14:32:41;20.00;99.90
22185;DHT22;11258;52.516;13.318;2022-10-16T14:35:35;20.00;99.90
22185;DHT22;11258;52.516;13.318;2022-10-16T14:38:03;20.00;99.90
22185;DHT22;11258;52.516;13.318;2022-10-16T14:40:35;19.90;99.90
22185;DHT22;11258;52.516;13.318;2022-10-16T14:43:03;19.90;99.90
22185;DHT22;11258;52.516;13.318;2022-10-16T14:45:31;19.90;99.90
22185;DHT22;11258;52.516;13.318;2022-10-16T14:48:00;19.90;99.90
22185;DHT22;11258;52.516;13.318;2022-10-16T14:50:26;19.90;99.90
22185;DHT22;11258;52.516;13.318;2022-10-16T14:52:52;19.80;99.90
22185;DHT22;11258;52.516;13.318;2022-10-16T14:55:18;19.80;99.90
22185;DHT22;11258;52.516;13.318;2022-10-16T14:57:44;19.80;99.90
22185;DHT22;11258;52.516;13.318;2022-10-16T15:00:36;19.80;99.90
22185;DHT22;11258;52.516;13.318;2022-10-16T15:03:02;19.70;99.90
22185;DHT22;11258;52.516;13.318;2022-10-16T15:05:28;19.70;99.90
22185;DHT22;11258;52.516;13.318;2022-10-16T15:07:54;19.60;99.90
22185;DHT22;11258;52.516;13.318;2022-10-16T15:10:22;19.60;99.90
22185;DHT22;11258;52.516;13.318;2022-10-16T15:12:48;19.50;99.90
22185;DHT22;11258;52.516;13.318;2022-10-16T15:17:55;19.50;99.90
22185;DHT22;11258;52.516;13.318;2022-10-16T15:20:23;19.40;99.90
22185;DHT22;11258;52.516;13.318;2022-10-16T15:22:49;19.40;99.90
22185;DHT22;11258;52.516;13.318;2022-10-16T15:27:52;19.30;99.90
22185;DHT22;11258;52.516;13.318;2022-10-16T15:30:17;19.20;99.90
22185;DHT22;11258;52.516;13.318;2022-10-16T15:32:43;19.10;99.90
22185;DHT22;11258;52.516;13.318;2022-10-16T15:35:09;19.10;99.90
22185;DHT22;11258;52.516;13.318;2022-10-16T15:37:34;19.00;99.90
22185;DHT22;11258;52.516;13.318;2022-10-16T15:40:00;18.90;99.90
22185;DHT22;11258;52.516;13.318;2022-10-16T15:42:25;18.90;99.90
22185;DHT22;11258;52.516;13.318;2022-10-16T15:44:51;18.90;99.90
22185;DHT22;11258;52.516;13.318;2022-10-16T15:47:16;18.80;99.90
22185;DHT22;11258;52.516;13.318;2022-10-16T15:49:42;18.80;99.90
22185;DHT22;11258;52.516;13.318;2022-10-16T15:52:07;18.70;99.90
22185;DHT22;11258;52.516;13.318;2022-10-16T15:54:33;18.70;99.90
22185;DHT22;11258;52.516;13.318;2022-10-16T15:56:58;18.60;99.90
22185;DHT22;11258;52.516;13.318;2022-10-16T15:59:24;18.50;99.90
22185;DHT22;11258;52.516;13.318;2022-10-16T16:01:50;18.50;99.90
22185;DHT22;11258;52.516;13.318;2022-10-16T16:04:15;18.40;99.90
22185;DHT22;11258;52.516;13.318;2022-10-16T16:06:42;18.30;99.90
22185;DHT22;11258;52.516;13.318;2022-10-16T16:09:10;18.30;99.90
22185;DHT22;11258;52.516;13.318;2022-10-16T16:11:36;18.20;99.90
22185;DHT22;11258;52.516;13.318;2022-10-16T16:14:07;18.20;99.90
22185;DHT22;11258;52.516;13.318;2022-10-16T16:16:33;18.10;99.90
22185;DHT22;11258;52.516;13.318;2022-10-16T16:19:04;18.00;99.90
22185;DHT22;11258;52.516;13.318;2022-10-16T16:21:31;17.90;99.90
22185;DHT22;11258;52.516;13.318;2022-10-16T16:23:57;17.80;99.90
22185;DHT22;11258;52.516;13.318;2022-10-16T16:26:25;17.80;99.90
22185;DHT22;11258;52.516;13.318;2022-10-16T16:28:52;17.80;99.90
22185;DHT22;11258;52.516;13.318;2022-10-16T16:31:18;17.70;99.90
22185;DHT22;11258;52.516;13.318;2022-10-16T16:33:43;17.70;99.90
22185;DHT22;11258;52.516;13.318;2022-10-16T16:36:09;17.70;99.90
22185;DHT22;11258;52.516;13.318;2022-10-16T16:38:35;17.60;99.90
22185;DHT22;11258;52.516;13.318;2022-10-16T16:41:17;17.60;99.90
22185;DHT22;11258;52.516;13.318;2022-10-16T16:43:43;17.50;99.90
22185;DHT22;11258;52.516;13.318;2022-10-16T16:46:08;17.50;99.90
22185;DHT22;11258;52.516;13.318;2022-10-16T16:48:34;17.50;99.90
22185;DHT22;11258;52.516;13.318;2022-10-16T16:51:08;17.40;99.90
22185;DHT22;11258;52.516;13.318;2022-10-16T16:53:34;17.40;99.90
22185;DHT22;11258;52.516;13.318;2022-10-16T16:56:05;17.30;99.90
22185;DHT22;11258;52.516;13.318;2022-10-16T16:58:31;17.30;99.90
22185;DHT22;11258;52.516;13.318;2022-10-16T17:00:57;17.20;99.90